EWG73X EDDL-LIML
Flight info
| Callsign | EWG73X |
|---|---|
| Flight time | 1h 15m |
| Altitude | 39000 |
| Route | DODEN7Z DODEN Y852 NATOR DCT TRA DCT RIPUS DCT GERSA DCT SOSON DCT ODINA |
| Aircraft | A320/M-SDE3FGHIRWY/LB1 |
Departure
| Time | 2026-05-06 20:01 |
|---|---|
| Airport | Düsseldorf Airport (EDDL) |
Arrival
| Time | 2026-05-06 21:16 |
|---|---|
| Airport | Milano Linate Airport (LIML) |
| Time | Latitude | Longitude | Altitude | Speed | Heading |
|---|---|---|---|---|---|
| 2026-05-06 19:36 | 51.28156 | 6.76722 | 137 ft | 0 kts | 275° |
| 2026-05-06 19:51 | 51.28156 | 6.76731 | 137 ft | 2 kts | 274° |
| 2026-05-06 19:51 | 51.28155 | 6.76763 | 137 ft | 3 kts | 271° |
| 2026-05-06 19:51 | 51.28155 | 6.76778 | 137 ft | 0 kts | 272° |
| 2026-05-06 19:52 | 51.28154 | 6.76795 | 137 ft | 3 kts | 291° |
| 2026-05-06 19:52 | 51.28145 | 6.76819 | 137 ft | 2 kts | 307° |
| 2026-05-06 19:53 | 51.28133 | 6.76838 | 137 ft | 3 kts | 343° |
| 2026-05-06 19:53 | 51.28129 | 6.76840 | 137 ft | 0 kts | 346° |
| 2026-05-06 19:55 | 51.28130 | 6.76840 | 137 ft | 1 kts | 346° |
| 2026-05-06 19:55 | 51.28173 | 6.76845 | 137 ft | 9 kts | 2° |
| 2026-05-06 19:55 | 51.28242 | 6.76851 | 137 ft | 11 kts | 3° |
| 2026-05-06 19:56 | 51.28315 | 6.76795 | 137 ft | 13 kts | 322° |
| 2026-05-06 19:56 | 51.28392 | 6.76699 | 137 ft | 14 kts | 322° |
| 2026-05-06 19:56 | 51.28386 | 6.76562 | 137 ft | 14 kts | 232° |
| 2026-05-06 19:56 | 51.28329 | 6.76444 | 137 ft | 13 kts | 232° |
| 2026-05-06 19:57 | 51.28279 | 6.76336 | 137 ft | 11 kts | 234° |
| 2026-05-06 19:57 | 51.28233 | 6.76241 | 137 ft | 10 kts | 231° |
| 2026-05-06 19:57 | 51.28192 | 6.76157 | 137 ft | 9 kts | 233° |
| 2026-05-06 19:57 | 51.28156 | 6.76079 | 137 ft | 9 kts | 233° |
| 2026-05-06 19:58 | 51.28099 | 6.75958 | 137 ft | 15 kts | 233° |
| 2026-05-06 19:58 | 51.28040 | 6.75834 | 137 ft | 13 kts | 233° |
| 2026-05-06 19:58 | 51.27985 | 6.75720 | 137 ft | 14 kts | 232° |
| 2026-05-06 19:58 | 51.27949 | 6.75592 | 136 ft | 12 kts | 285° |
| 2026-05-06 19:59 | 51.28018 | 6.75507 | 134 ft | 15 kts | 343° |
| 2026-05-06 19:59 | 51.28107 | 6.75550 | 132 ft | 14 kts | 8° |
| 2026-05-06 19:59 | 51.28147 | 6.75591 | 132 ft | 0 kts | 54° |
| 2026-05-06 20:00 | 51.28147 | 6.75592 | 132 ft | 0 kts | 54° |
| 2026-05-06 20:00 | 51.28214 | 6.75732 | 134 ft | 48 kts | 52° |
| 2026-05-06 20:00 | 51.28568 | 6.76471 | 133 ft | 115 kts | 52° |
| 2026-05-06 20:01 | 51.29164 | 6.77704 | 254 ft | 155 kts | 50° |
| 2026-05-06 20:01 | 51.29814 | 6.79062 | 950 ft | 154 kts | 50° |
| 2026-05-06 20:01 | 51.30458 | 6.80436 | 1709 ft | 154 kts | 51° |
| 2026-05-06 20:01 | 51.31122 | 6.81882 | 2193 ft | 171 kts | 51° |
| 2026-05-06 20:02 | 51.31859 | 6.83518 | 2592 ft | 189 kts | 53° |
| 2026-05-06 20:02 | 51.32679 | 6.85317 | 2975 ft | 213 kts | 52° |
| 2026-05-06 20:02 | 51.33632 | 6.87360 | 3327 ft | 243 kts | 52° |
| 2026-05-06 20:02 | 51.34664 | 6.89581 | 4212 ft | 251 kts | 54° |
| 2026-05-06 20:03 | 51.35356 | 6.92176 | 5175 ft | 260 kts | 79° |
| 2026-05-06 20:03 | 51.35265 | 6.95096 | 6187 ft | 267 kts | 96° |
| 2026-05-06 20:03 | 51.34909 | 6.98007 | 7073 ft | 272 kts | 99° |
| 2026-05-06 20:03 | 51.34501 | 7.00996 | 7944 ft | 278 kts | 99° |
| 2026-05-06 20:04 | 51.34082 | 7.04030 | 8866 ft | 281 kts | 99° |
| 2026-05-06 20:04 | 51.33663 | 7.07120 | 9741 ft | 287 kts | 99° |
| 2026-05-06 20:04 | 51.33274 | 7.10290 | 10529 ft | 293 kts | 98° |
| 2026-05-06 20:04 | 51.32944 | 7.13535 | 11238 ft | 302 kts | 97° |
| 2026-05-06 20:05 | 51.32379 | 7.16913 | 11527 ft | 329 kts | 110° |
| 2026-05-06 20:05 | 51.31203 | 7.20192 | 11809 ft | 354 kts | 127° |
| 2026-05-06 20:05 | 51.29456 | 7.23056 | 12422 ft | 364 kts | 134° |
| 2026-05-06 20:05 | 51.27627 | 7.25890 | 13170 ft | 369 kts | 134° |
| 2026-05-06 20:06 | 51.25779 | 7.28768 | 13901 ft | 373 kts | 134° |
| 2026-05-06 20:06 | 51.23914 | 7.31694 | 14567 ft | 377 kts | 134° |
| 2026-05-06 20:06 | 51.22911 | 7.33273 | 14931 ft | 379 kts | 135° |
| 2026-05-06 20:06 | 51.21028 | 7.36237 | 15623 ft | 382 kts | 135° |
| 2026-05-06 20:07 | 51.19125 | 7.39230 | 16291 ft | 386 kts | 135° |
| 2026-05-06 20:07 | 51.17209 | 7.42242 | 16970 ft | 389 kts | 136° |
| 2026-05-06 20:07 | 51.15271 | 7.45288 | 17656 ft | 392 kts | 136° |
| 2026-05-06 20:07 | 51.13335 | 7.48298 | 18311 ft | 395 kts | 137° |
| 2026-05-06 20:08 | 51.11346 | 7.51346 | 18905 ft | 398 kts | 137° |
| 2026-05-06 20:08 | 51.09334 | 7.54403 | 19504 ft | 401 kts | 137° |
| 2026-05-06 20:08 | 51.07308 | 7.57472 | 20098 ft | 404 kts | 137° |
| 2026-05-06 20:08 | 51.05265 | 7.60569 | 20704 ft | 407 kts | 137° |
| 2026-05-06 20:09 | 51.03215 | 7.63689 | 21275 ft | 410 kts | 137° |
| 2026-05-06 20:09 | 51.01144 | 7.66835 | 21840 ft | 413 kts | 137° |
| 2026-05-06 20:09 | 50.99063 | 7.69994 | 22383 ft | 416 kts | 137° |
| 2026-05-06 20:09 | 50.96920 | 7.73100 | 22932 ft | 417 kts | 144° |
| 2026-05-06 20:10 | 50.94397 | 7.75351 | 23445 ft | 417 kts | 161° |
| 2026-05-06 20:10 | 50.92511 | 7.76184 | 23737 ft | 417 kts | 171° |
| 2026-05-06 20:10 | 50.89683 | 7.76969 | 24184 ft | 419 kts | 172° |
| 2026-05-06 20:10 | 50.86771 | 7.77755 | 24630 ft | 420 kts | 172° |
| 2026-05-06 20:11 | 50.83922 | 7.78519 | 25066 ft | 421 kts | 172° |
| 2026-05-06 20:11 | 50.81031 | 7.79293 | 25500 ft | 422 kts | 172° |
| 2026-05-06 20:11 | 50.78131 | 7.80072 | 25929 ft | 424 kts | 172° |
| 2026-05-06 20:11 | 50.75217 | 7.80857 | 26349 ft | 425 kts | 171° |
| 2026-05-06 20:12 | 50.72294 | 7.81647 | 26747 ft | 426 kts | 171° |
| 2026-05-06 20:12 | 50.69365 | 7.82441 | 27145 ft | 428 kts | 171° |
| 2026-05-06 20:12 | 50.66433 | 7.83237 | 27539 ft | 429 kts | 171° |
| 2026-05-06 20:12 | 50.63484 | 7.84035 | 27920 ft | 430 kts | 171° |
| 2026-05-06 20:13 | 50.60530 | 7.84829 | 28297 ft | 431 kts | 171° |
| 2026-05-06 20:13 | 50.57563 | 7.85624 | 28659 ft | 433 kts | 171° |
| 2026-05-06 20:13 | 50.54594 | 7.86446 | 29006 ft | 434 kts | 170° |
| 2026-05-06 20:13 | 50.51620 | 7.87322 | 29336 ft | 435 kts | 170° |
| 2026-05-06 20:14 | 50.48644 | 7.88231 | 29646 ft | 437 kts | 169° |
| 2026-05-06 20:14 | 50.45660 | 7.89150 | 29919 ft | 438 kts | 169° |
| 2026-05-06 20:14 | 50.42664 | 7.90069 | 30170 ft | 439 kts | 169° |
| 2026-05-06 20:14 | 50.39664 | 7.90981 | 30476 ft | 438 kts | 169° |
| 2026-05-06 20:15 | 50.36669 | 7.91874 | 30771 ft | 438 kts | 170° |
| 2026-05-06 20:15 | 50.33720 | 7.92747 | 31058 ft | 437 kts | 170° |
| 2026-05-06 20:15 | 50.30725 | 7.93631 | 31353 ft | 437 kts | 170° |
| 2026-05-06 20:15 | 50.27741 | 7.94515 | 31639 ft | 437 kts | 170° |
| 2026-05-06 20:16 | 50.24756 | 7.95402 | 31953 ft | 436 kts | 170° |
| 2026-05-06 20:16 | 50.21776 | 7.96285 | 32260 ft | 436 kts | 170° |
| 2026-05-06 20:16 | 50.18791 | 7.97167 | 32563 ft | 435 kts | 170° |
| 2026-05-06 20:16 | 50.15815 | 7.98042 | 32867 ft | 435 kts | 170° |
| 2026-05-06 20:17 | 50.12840 | 7.98916 | 33182 ft | 434 kts | 170° |
| 2026-05-06 20:17 | 50.09868 | 7.99791 | 33498 ft | 434 kts | 170° |
| 2026-05-06 20:17 | 50.06901 | 8.00655 | 33814 ft | 433 kts | 171° |
| 2026-05-06 20:17 | 50.03938 | 8.01512 | 34087 ft | 433 kts | 171° |
| 2026-05-06 20:18 | 50.00978 | 8.02362 | 34330 ft | 433 kts | 171° |
| 2026-05-06 20:18 | 49.98010 | 8.03212 | 34576 ft | 433 kts | 171° |
| 2026-05-06 20:18 | 49.95044 | 8.04062 | 34807 ft | 434 kts | 171° |
| 2026-05-06 20:18 | 49.92071 | 8.04912 | 35026 ft | 434 kts | 171° |
| 2026-05-06 20:19 | 49.89100 | 8.05760 | 35247 ft | 434 kts | 171° |
| 2026-05-06 20:19 | 49.86131 | 8.06605 | 35459 ft | 435 kts | 171° |
| 2026-05-06 20:19 | 49.83153 | 8.07450 | 35671 ft | 435 kts | 171° |
| 2026-05-06 20:19 | 49.80172 | 8.08299 | 35879 ft | 435 kts | 171° |
| 2026-05-06 20:20 | 49.77231 | 8.09137 | 36076 ft | 436 kts | 171° |
| 2026-05-06 20:20 | 49.74212 | 8.09996 | 36278 ft | 436 kts | 171° |
| 2026-05-06 20:20 | 49.71264 | 8.10840 | 36473 ft | 436 kts | 171° |
| 2026-05-06 20:20 | 49.68237 | 8.11708 | 36650 ft | 437 kts | 171° |
| 2026-05-06 20:21 | 49.65248 | 8.12558 | 36833 ft | 437 kts | 171° |
| 2026-05-06 20:21 | 49.62253 | 8.13403 | 37018 ft | 437 kts | 171° |
| 2026-05-06 20:21 | 49.59292 | 8.14236 | 37202 ft | 438 kts | 171° |
| 2026-05-06 20:21 | 49.56296 | 8.15076 | 37378 ft | 438 kts | 171° |
| 2026-05-06 20:22 | 49.53292 | 8.15916 | 37564 ft | 438 kts | 171° |
| 2026-05-06 20:22 | 49.50293 | 8.16755 | 37724 ft | 439 kts | 171° |
| 2026-05-06 20:22 | 49.47289 | 8.17598 | 37882 ft | 439 kts | 171° |
| 2026-05-06 20:22 | 49.44280 | 8.18443 | 38045 ft | 439 kts | 172° |
| 2026-05-06 20:23 | 49.41272 | 8.19286 | 38213 ft | 440 kts | 172° |
| 2026-05-06 20:23 | 49.38264 | 8.20131 | 38372 ft | 440 kts | 172° |
| 2026-05-06 20:23 | 49.35256 | 8.20978 | 38524 ft | 440 kts | 172° |
| 2026-05-06 20:23 | 49.32241 | 8.21827 | 38646 ft | 440 kts | 172° |
| 2026-05-06 20:24 | 49.29233 | 8.22671 | 38796 ft | 439 kts | 172° |
| 2026-05-06 20:24 | 49.26222 | 8.23512 | 38851 ft | 440 kts | 172° |
| 2026-05-06 20:24 | 49.20188 | 8.25190 | 38862 ft | 441 kts | 172° |
| 2026-05-06 20:25 | 49.14157 | 8.26859 | 38862 ft | 440 kts | 172° |
| 2026-05-06 20:25 | 49.08158 | 8.28512 | 38855 ft | 440 kts | 172° |
| 2026-05-06 20:26 | 49.02132 | 8.30181 | 38872 ft | 440 kts | 172° |
| 2026-05-06 20:26 | 48.96074 | 8.31118 | 38881 ft | 437 kts | 181° |
| 2026-05-06 20:27 | 48.89992 | 8.31179 | 38887 ft | 437 kts | 181° |
| 2026-05-06 20:27 | 48.83907 | 8.31263 | 38895 ft | 438 kts | 181° |
| 2026-05-06 20:28 | 48.77811 | 8.31354 | 38902 ft | 438 kts | 181° |
| 2026-05-06 20:28 | 48.71711 | 8.31431 | 38902 ft | 438 kts | 181° |
| 2026-05-06 20:29 | 48.65654 | 8.31510 | 38904 ft | 438 kts | 181° |
| 2026-05-06 20:29 | 48.59563 | 8.31591 | 38907 ft | 437 kts | 181° |
| 2026-05-06 20:30 | 48.50438 | 8.31706 | 38907 ft | 437 kts | 181° |
| 2026-05-06 20:31 | 48.44359 | 8.31775 | 38911 ft | 436 kts | 181° |
| 2026-05-06 20:31 | 48.38285 | 8.31850 | 38918 ft | 437 kts | 181° |
| 2026-05-06 20:32 | 48.32205 | 8.31936 | 38922 ft | 437 kts | 181° |
| 2026-05-06 20:32 | 48.26124 | 8.32015 | 38931 ft | 437 kts | 181° |
| 2026-05-06 20:33 | 48.20039 | 8.32086 | 38930 ft | 437 kts | 181° |
| 2026-05-06 20:33 | 48.14021 | 8.32830 | 38928 ft | 439 kts | 172° |
| 2026-05-06 20:34 | 48.07997 | 8.34310 | 38929 ft | 439 kts | 173° |
| 2026-05-06 20:34 | 48.01967 | 8.35771 | 38932 ft | 439 kts | 173° |
| 2026-05-06 20:35 | 47.95930 | 8.37224 | 38937 ft | 439 kts | 173° |
| 2026-05-06 20:35 | 47.89893 | 8.38688 | 38940 ft | 440 kts | 173° |
| 2026-05-06 20:36 | 47.83854 | 8.40137 | 38947 ft | 440 kts | 173° |
| 2026-05-06 20:36 | 47.77800 | 8.41581 | 38954 ft | 441 kts | 173° |
| 2026-05-06 20:37 | 47.71741 | 8.43029 | 38952 ft | 441 kts | 173° |
| 2026-05-06 20:37 | 47.65670 | 8.44354 | 38954 ft | 441 kts | 175° |
| 2026-05-06 20:38 | 47.59573 | 8.45236 | 38958 ft | 440 kts | 177° |
| 2026-05-06 20:38 | 47.53526 | 8.45992 | 38960 ft | 441 kts | 177° |
| 2026-05-06 20:39 | 47.47418 | 8.46834 | 38958 ft | 441 kts | 176° |
| 2026-05-06 20:39 | 47.41300 | 8.47751 | 38958 ft | 442 kts | 176° |
| 2026-05-06 20:40 | 47.35182 | 8.48659 | 38961 ft | 442 kts | 176° |
| 2026-05-06 20:40 | 47.29053 | 8.49552 | 38963 ft | 442 kts | 176° |
| 2026-05-06 20:41 | 47.22926 | 8.50440 | 38963 ft | 442 kts | 176° |
| 2026-05-06 20:41 | 47.16792 | 8.51339 | 38962 ft | 443 kts | 176° |
| 2026-05-06 20:42 | 47.10697 | 8.52223 | 38963 ft | 443 kts | 176° |
| 2026-05-06 20:42 | 47.04556 | 8.53115 | 38987 ft | 443 kts | 177° |
| 2026-05-06 20:43 | 46.98429 | 8.54001 | 38989 ft | 443 kts | 177° |
| 2026-05-06 20:43 | 46.92279 | 8.54893 | 38981 ft | 443 kts | 177° |
| 2026-05-06 20:44 | 46.86138 | 8.55774 | 38982 ft | 444 kts | 177° |
| 2026-05-06 20:44 | 46.79996 | 8.56648 | 38984 ft | 444 kts | 177° |
| 2026-05-06 20:45 | 46.73844 | 8.57531 | 38983 ft | 445 kts | 177° |
| 2026-05-06 20:45 | 46.67682 | 8.58412 | 38982 ft | 444 kts | 177° |
| 2026-05-06 20:46 | 46.61584 | 8.59281 | 38979 ft | 443 kts | 177° |
| 2026-05-06 20:46 | 46.55446 | 8.60152 | 38546 ft | 445 kts | 178° |
| 2026-05-06 20:46 | 46.52348 | 8.60590 | 37541 ft | 448 kts | 178° |
| 2026-05-06 20:47 | 46.49253 | 8.61026 | 36655 ft | 446 kts | 178° |
| 2026-05-06 20:47 | 46.46174 | 8.61462 | 35841 ft | 442 kts | 178° |
| 2026-05-06 20:47 | 46.43127 | 8.61899 | 35035 ft | 437 kts | 179° |
| 2026-05-06 20:47 | 46.40113 | 8.62331 | 34261 ft | 433 kts | 179° |
| 2026-05-06 20:48 | 46.37129 | 8.62758 | 33359 ft | 428 kts | 179° |
| 2026-05-06 20:48 | 46.34181 | 8.63175 | 32335 ft | 425 kts | 179° |
| 2026-05-06 20:48 | 46.31239 | 8.63584 | 31219 ft | 424 kts | 179° |
| 2026-05-06 20:48 | 46.28299 | 8.63987 | 30133 ft | 424 kts | 180° |
| 2026-05-06 20:49 | 46.25387 | 8.64388 | 28792 ft | 425 kts | 179° |
| 2026-05-06 20:49 | 46.22453 | 8.64796 | 27640 ft | 422 kts | 179° |
| 2026-05-06 20:49 | 46.19530 | 8.65207 | 26541 ft | 421 kts | 178° |
| 2026-05-06 20:49 | 46.16618 | 8.65617 | 25571 ft | 419 kts | 178° |
| 2026-05-06 20:50 | 46.13734 | 8.66025 | 24750 ft | 414 kts | 177° |
| 2026-05-06 20:50 | 46.10918 | 8.66784 | 24105 ft | 411 kts | 167° |
| 2026-05-06 20:50 | 46.08244 | 8.68239 | 23374 ft | 411 kts | 158° |
| 2026-05-06 20:50 | 46.05731 | 8.70185 | 22657 ft | 407 kts | 155° |
| 2026-05-06 20:51 | 46.03263 | 8.72129 | 22027 ft | 401 kts | 155° |
| 2026-05-06 20:51 | 46.00829 | 8.74035 | 21424 ft | 396 kts | 155° |
| 2026-05-06 20:51 | 45.98421 | 8.75916 | 20849 ft | 391 kts | 155° |
| 2026-05-06 20:51 | 45.96041 | 8.77771 | 20287 ft | 387 kts | 155° |
| 2026-05-06 20:52 | 45.93678 | 8.79611 | 19759 ft | 383 kts | 155° |
| 2026-05-06 20:52 | 45.91375 | 8.81404 | 19298 ft | 378 kts | 155° |
| 2026-05-06 20:52 | 45.89079 | 8.83191 | 19166 ft | 363 kts | 155° |
| 2026-05-06 20:52 | 45.86898 | 8.84891 | 19041 ft | 351 kts | 155° |
| 2026-05-06 20:53 | 45.84824 | 8.86510 | 18912 ft | 338 kts | 155° |
| 2026-05-06 20:53 | 45.82788 | 8.88098 | 18785 ft | 327 kts | 155° |
| 2026-05-06 20:53 | 45.80805 | 8.89638 | 18542 ft | 320 kts | 155° |
| 2026-05-06 20:53 | 45.78855 | 8.91148 | 18388 ft | 319 kts | 156° |
| 2026-05-06 20:54 | 45.76880 | 8.92669 | 17887 ft | 322 kts | 155° |
| 2026-05-06 20:54 | 45.74920 | 8.94180 | 17577 ft | 318 kts | 155° |
| 2026-05-06 20:54 | 45.73068 | 8.95610 | 17176 ft | 318 kts | 155° |
| 2026-05-06 20:54 | 45.71129 | 8.97110 | 16766 ft | 316 kts | 155° |
| 2026-05-06 20:55 | 45.69193 | 8.98605 | 16376 ft | 315 kts | 155° |
| 2026-05-06 20:55 | 45.67268 | 9.00093 | 16003 ft | 314 kts | 155° |
| 2026-05-06 20:55 | 45.65376 | 9.01551 | 15626 ft | 312 kts | 155° |
| 2026-05-06 20:55 | 45.63468 | 9.03022 | 15247 ft | 311 kts | 155° |
| 2026-05-06 20:56 | 45.61566 | 9.04483 | 14879 ft | 309 kts | 155° |
| 2026-05-06 20:56 | 45.59676 | 9.05933 | 14514 ft | 308 kts | 155° |
| 2026-05-06 20:56 | 45.57790 | 9.07383 | 14160 ft | 307 kts | 155° |
| 2026-05-06 20:56 | 45.55911 | 9.08823 | 13810 ft | 305 kts | 155° |
| 2026-05-06 20:57 | 45.54053 | 9.10246 | 13602 ft | 298 kts | 155° |
| 2026-05-06 20:57 | 45.52258 | 9.11623 | 13460 ft | 289 kts | 156° |
| 2026-05-06 20:57 | 45.50429 | 9.12637 | 13270 ft | 277 kts | 170° |
| 2026-05-06 20:57 | 45.48543 | 9.12976 | 12985 ft | 272 kts | 179° |
| 2026-05-06 20:58 | 45.46664 | 9.13175 | 12653 ft | 270 kts | 179° |
| 2026-05-06 20:58 | 45.44791 | 9.13379 | 12330 ft | 269 kts | 178° |
| 2026-05-06 20:58 | 45.42929 | 9.13587 | 12000 ft | 268 kts | 178° |
| 2026-05-06 20:58 | 45.41072 | 9.13797 | 11676 ft | 267 kts | 178° |
| 2026-05-06 20:59 | 45.39226 | 9.14004 | 11349 ft | 266 kts | 178° |
| 2026-05-06 20:59 | 45.37405 | 9.14208 | 11023 ft | 265 kts | 178° |
| 2026-05-06 20:59 | 45.35571 | 9.14417 | 10688 ft | 264 kts | 178° |
| 2026-05-06 20:59 | 45.33745 | 9.14622 | 10360 ft | 263 kts | 178° |
| 2026-05-06 21:00 | 45.31930 | 9.14824 | 10075 ft | 260 kts | 178° |
| 2026-05-06 21:00 | 45.30140 | 9.15022 | 9876 ft | 257 kts | 178° |
| 2026-05-06 21:00 | 45.28361 | 9.15220 | 9681 ft | 257 kts | 178° |
| 2026-05-06 21:00 | 45.26580 | 9.15419 | 9499 ft | 256 kts | 178° |
| 2026-05-06 21:01 | 45.24819 | 9.15618 | 9357 ft | 249 kts | 178° |
| 2026-05-06 21:01 | 45.23136 | 9.15811 | 9254 ft | 237 kts | 178° |
| 2026-05-06 21:01 | 45.21524 | 9.15996 | 9144 ft | 227 kts | 178° |
| 2026-05-06 21:01 | 45.19970 | 9.16172 | 8993 ft | 222 kts | 178° |
| 2026-05-06 21:02 | 45.18433 | 9.16340 | 8841 ft | 221 kts | 179° |
| 2026-05-06 21:02 | 45.16908 | 9.16502 | 8692 ft | 219 kts | 179° |
| 2026-05-06 21:02 | 45.15898 | 9.16607 | 8601 ft | 219 kts | 179° |
| 2026-05-06 21:02 | 45.14389 | 9.16766 | 8463 ft | 218 kts | 179° |
| 2026-05-06 21:03 | 45.12879 | 9.16933 | 8321 ft | 217 kts | 179° |
| 2026-05-06 21:03 | 45.11379 | 9.17102 | 8174 ft | 217 kts | 179° |
| 2026-05-06 21:03 | 45.09876 | 9.17273 | 8031 ft | 216 kts | 179° |
| 2026-05-06 21:03 | 45.08378 | 9.17447 | 7889 ft | 215 kts | 179° |
| 2026-05-06 21:04 | 45.06907 | 9.17614 | 7758 ft | 214 kts | 179° |
| 2026-05-06 21:04 | 45.05404 | 9.17782 | 7609 ft | 213 kts | 179° |
| 2026-05-06 21:04 | 45.03957 | 9.17941 | 7469 ft | 205 kts | 179° |
| 2026-05-06 21:04 | 45.02575 | 9.18092 | 7335 ft | 198 kts | 179° |
| 2026-05-06 21:05 | 45.01190 | 9.18244 | 7194 ft | 201 kts | 179° |
| 2026-05-06 21:05 | 44.99809 | 9.18400 | 7053 ft | 199 kts | 179° |
| 2026-05-06 21:05 | 44.98485 | 9.18970 | 6946 ft | 204 kts | 152° |
| 2026-05-06 21:05 | 44.97521 | 9.20483 | 6775 ft | 215 kts | 120° |
| 2026-05-06 21:06 | 44.97277 | 9.22590 | 6601 ft | 224 kts | 90° |
| 2026-05-06 21:06 | 44.97411 | 9.24786 | 6438 ft | 225 kts | 89° |
| 2026-05-06 21:06 | 44.97540 | 9.26991 | 6272 ft | 225 kts | 89° |
| 2026-05-06 21:06 | 44.97729 | 9.29182 | 6097 ft | 227 kts | 77° |
| 2026-05-06 21:07 | 44.98521 | 9.31093 | 5930 ft | 229 kts | 45° |
| 2026-05-06 21:07 | 44.99864 | 9.32234 | 5767 ft | 225 kts | 14° |
| 2026-05-06 21:07 | 45.01395 | 9.32374 | 5619 ft | 220 kts | 352° |
| 2026-05-06 21:07 | 45.02916 | 9.32201 | 5491 ft | 219 kts | 352° |
| 2026-05-06 21:08 | 45.04435 | 9.32037 | 5383 ft | 219 kts | 352° |
| 2026-05-06 21:08 | 45.05950 | 9.31873 | 5244 ft | 218 kts | 352° |
| 2026-05-06 21:08 | 45.07462 | 9.31709 | 5086 ft | 218 kts | 353° |
| 2026-05-06 21:08 | 45.08966 | 9.31546 | 4942 ft | 216 kts | 353° |
| 2026-05-06 21:09 | 45.10464 | 9.31383 | 4808 ft | 216 kts | 353° |
| 2026-05-06 21:09 | 45.11958 | 9.31220 | 4663 ft | 215 kts | 354° |
| 2026-05-06 21:09 | 45.13425 | 9.31061 | 4527 ft | 213 kts | 354° |
| 2026-05-06 21:09 | 45.14903 | 9.30900 | 4387 ft | 212 kts | 354° |
| 2026-05-06 21:10 | 45.16376 | 9.30740 | 4249 ft | 212 kts | 354° |
| 2026-05-06 21:10 | 45.17845 | 9.30580 | 4108 ft | 211 kts | 354° |
| 2026-05-06 21:10 | 45.19310 | 9.30420 | 3975 ft | 211 kts | 354° |
| 2026-05-06 21:10 | 45.20772 | 9.30261 | 3838 ft | 211 kts | 354° |
| 2026-05-06 21:11 | 45.22227 | 9.30100 | 3698 ft | 207 kts | 354° |
| 2026-05-06 21:11 | 45.23635 | 9.29948 | 3570 ft | 200 kts | 354° |
| 2026-05-06 21:11 | 45.25018 | 9.29799 | 3442 ft | 198 kts | 355° |
| 2026-05-06 21:11 | 45.26383 | 9.29653 | 3314 ft | 197 kts | 355° |
| 2026-05-06 21:12 | 45.27747 | 9.29507 | 3186 ft | 195 kts | 355° |
| 2026-05-06 21:12 | 45.29098 | 9.29362 | 3103 ft | 195 kts | 355° |
| 2026-05-06 21:12 | 45.30448 | 9.29218 | 2907 ft | 192 kts | 355° |
| 2026-05-06 21:12 | 45.31765 | 9.29076 | 2670 ft | 187 kts | 356° |
| 2026-05-06 21:13 | 45.33022 | 9.28941 | 2436 ft | 175 kts | 356° |
| 2026-05-06 21:13 | 45.34201 | 9.28814 | 2194 ft | 164 kts | 358° |
| 2026-05-06 21:13 | 45.35301 | 9.28696 | 2001 ft | 152 kts | 359° |
| 2026-05-06 21:13 | 45.36313 | 9.28586 | 1806 ft | 142 kts | 359° |
| 2026-05-06 21:14 | 45.37285 | 9.28476 | 1618 ft | 138 kts | 0° |
| 2026-05-06 21:14 | 45.38217 | 9.28353 | 1397 ft | 136 kts | 360° |
| 2026-05-06 21:14 | 45.39160 | 9.28251 | 1230 ft | 135 kts | 1° |
| 2026-05-06 21:14 | 45.40097 | 9.28167 | 1055 ft | 135 kts | 0° |
| 2026-05-06 21:15 | 45.41037 | 9.28070 | 895 ft | 134 kts | 359° |
| 2026-05-06 21:15 | 45.41960 | 9.27976 | 705 ft | 132 kts | 358° |
| 2026-05-06 21:15 | 45.42865 | 9.27874 | 525 ft | 129 kts | 358° |
| 2026-05-06 21:15 | 45.43753 | 9.27783 | 388 ft | 127 kts | 358° |
| 2026-05-06 21:16 | 45.44558 | 9.27707 | 364 ft | 98 kts | 357° |
| 2026-05-06 21:16 | 45.45064 | 9.27650 | 364 ft | 48 kts | 355° |
| 2026-05-06 21:16 | 45.45301 | 9.27657 | 368 ft | 30 kts | 20° |
| 2026-05-06 21:16 | 45.45411 | 9.27733 | 364 ft | 9 kts | 28° |
| 2026-05-06 21:17 | 45.45441 | 9.27768 | 364 ft | 0 kts | 49° |
| 2026-05-06 21:18 | 45.45458 | 9.27794 | 364 ft | 9 kts | 44° |
| 2026-05-06 21:18 | 45.45524 | 9.27817 | 368 ft | 11 kts | 359° |
| 2026-05-06 21:19 | 45.45611 | 9.27816 | 366 ft | 14 kts | 360° |
| 2026-05-06 21:19 | 45.45718 | 9.27818 | 364 ft | 15 kts | 1° |
| 2026-05-06 21:19 | 45.45766 | 9.27823 | 364 ft | 2 kts | 33° |
| 2026-05-06 21:19 | 45.45774 | 9.27847 | 366 ft | 5 kts | 75° |
| 2026-05-06 21:20 | 45.45773 | 9.27888 | 364 ft | 2 kts | 91° |
| 2026-05-06 21:20 | 45.45773 | 9.27894 | 364 ft | 0 kts | 91° |